createdAt,value
2018-12-27T00:01:03.781Z,8.20
2018-12-27T00:03:37.430Z,9.87
2018-12-27T00:06:07.421Z,9.17
2018-12-27T00:08:37.605Z,9.93
2018-12-27T00:11:07.778Z,9.60
2018-12-27T00:13:37.921Z,10.03
2018-12-27T00:16:08.389Z,9.60
2018-12-27T00:18:38.780Z,9.30
2018-12-27T00:21:09.502Z,8.67
2018-12-27T00:23:39.709Z,10.00
2018-12-27T00:26:09.739Z,10.20
2018-12-27T00:28:39.885Z,9.73
2018-12-27T00:31:10.110Z,9.53
2018-12-27T00:33:40.885Z,10.10
2018-12-27T00:36:11.117Z,8.93
2018-12-27T00:38:41.253Z,8.53
2018-12-27T00:41:13.101Z,9.67
2018-12-27T00:43:43.314Z,8.57
2018-12-27T00:46:13.693Z,8.60
2018-12-27T00:48:44.033Z,8.10
2018-12-27T00:51:14.177Z,8.90
2018-12-27T00:53:44.481Z,8.63
2018-12-27T00:56:14.583Z,8.47
2018-12-27T00:58:44.853Z,7.63
2018-12-27T01:01:14.973Z,9.20
2018-12-27T01:03:45.046Z,7.50
2018-12-27T01:06:15.215Z,8.27
2018-12-27T01:08:45.369Z,7.77
2018-12-27T01:11:15.677Z,8.33
2018-12-27T01:13:45.899Z,8.00
2018-12-27T01:16:16.021Z,8.50
2018-12-27T01:18:46.133Z,8.13
2018-12-27T01:21:16.609Z,7.93
2018-12-27T01:23:46.965Z,8.03
2018-12-27T01:26:17.072Z,7.60
2018-12-27T01:28:47.225Z,7.47
2018-12-27T01:31:17.383Z,6.73
2018-12-27T01:33:47.549Z,7.50
2018-12-27T01:36:17.793Z,6.90
2018-12-27T01:38:47.918Z,6.97
2018-12-27T01:41:18.046Z,7.23
2018-12-27T01:43:48.238Z,6.17
2018-12-27T01:46:18.346Z,7.20
2018-12-27T01:48:48.484Z,8.13
2018-12-27T01:51:18.625Z,7.20
2018-12-27T01:53:48.753Z,7.20
2018-12-27T01:56:19.557Z,7.40
2018-12-27T01:58:49.890Z,6.97
2018-12-27T02:01:19.985Z,7.00
2018-12-27T02:03:50.121Z,7.50
2018-12-27T02:06:20.505Z,7.10
2018-12-27T02:08:50.665Z,7.37
2018-12-27T02:11:20.859Z,8.13
2018-12-27T02:13:51.150Z,7.50
2018-12-27T02:16:21.365Z,7.80
2018-12-27T02:18:51.495Z,8.20
2018-12-27T02:21:21.846Z,7.60
2018-12-27T02:23:52.001Z,7.30
2018-12-27T02:26:22.217Z,7.70
2018-12-27T02:28:52.352Z,7.47
2018-12-27T02:31:22.402Z,7.00
2018-12-27T02:33:52.561Z,6.80
2018-12-27T02:36:23.137Z,7.50
2018-12-27T02:38:54.264Z,7.70
2018-12-27T02:41:26.088Z,7.40
2018-12-27T02:43:56.848Z,7.60
2018-12-27T02:46:27.374Z,7.83
2018-12-27T02:48:57.629Z,7.67
2018-12-27T02:51:27.861Z,7.83
2018-12-27T02:53:58.045Z,7.53
2018-12-27T02:56:28.301Z,7.87
2018-12-27T02:58:58.424Z,8.37
2018-12-27T03:01:28.717Z,8.13
2018-12-27T03:03:58.887Z,8.17
2018-12-27T03:06:29.019Z,7.60
2018-12-27T03:08:59.084Z,8.10
2018-12-27T03:11:29.135Z,8.30
2018-12-27T03:13:59.529Z,7.93
2018-12-27T03:16:29.625Z,7.93
2018-12-27T03:18:59.752Z,8.87
2018-12-27T03:21:30.193Z,8.67
2018-12-27T03:24:00.422Z,8.47
2018-12-27T03:26:30.505Z,9.13
2018-12-27T03:29:00.565Z,8.40
2018-12-27T03:31:30.698Z,9.67
2018-12-27T03:34:01.005Z,9.10
2018-12-27T03:36:31.285Z,9.70
2018-12-27T03:39:01.416Z,9.70
2018-12-27T03:41:31.759Z,8.80
2018-12-27T03:44:01.874Z,8.80
2018-12-27T03:46:32.160Z,9.10
2018-12-27T03:49:02.229Z,9.27
2018-12-27T03:51:32.380Z,9.50
2018-12-27T03:54:02.753Z,9.07
2018-12-27T03:56:33.355Z,9.50
2018-12-27T03:59:03.504Z,9.10
2018-12-27T04:01:33.608Z,9.67
2018-12-27T04:04:03.998Z,9.73
2018-12-27T04:06:34.522Z,9.63
2018-12-27T04:09:05.461Z,9.80
2018-12-27T04:11:35.572Z,9.90
2018-12-27T04:14:05.978Z,10.40
2018-12-27T04:16:36.461Z,10.50
2018-12-27T04:19:06.499Z,10.77
2018-12-27T04:21:36.637Z,11.70
2018-12-27T04:24:07.353Z,11.57
2018-12-27T04:26:37.398Z,10.57
2018-12-27T04:29:07.391Z,12.13
2018-12-27T04:31:38.025Z,11.77
2018-12-27T04:34:09.918Z,11.67
2018-12-27T04:36:42.189Z,12.20
2018-12-27T04:39:12.237Z,11.10
2018-12-27T04:41:42.367Z,11.70
2018-12-27T04:44:12.505Z,11.87
2018-12-27T04:46:42.421Z,10.90
2018-12-27T04:49:12.397Z,11.33
2018-12-27T04:51:42.354Z,10.80
2018-12-27T04:54:12.417Z,11.30
2018-12-27T04:56:42.381Z,12.67
2018-12-27T04:59:12.314Z,11.50
2018-12-27T05:01:42.836Z,11.37
2018-12-27T05:04:18.096Z,10.73
2018-12-27T05:06:44.498Z,10.37
2018-12-27T05:09:14.492Z,11.20
2018-12-27T05:11:44.460Z,11.27
2018-12-27T05:14:14.363Z,12.63
2018-12-27T05:16:44.649Z,11.33
2018-12-27T05:19:14.618Z,12.23
2018-12-27T05:21:44.603Z,11.87
2018-12-27T05:24:14.531Z,11.70
2018-12-27T05:26:44.508Z,10.93
2018-12-27T05:29:14.514Z,10.87
2018-12-27T05:31:44.677Z,10.90
2018-12-27T05:34:14.725Z,10.60
2018-12-27T05:36:44.686Z,10.93
2018-12-27T05:39:14.858Z,10.50
2018-12-27T05:41:44.813Z,10.10
2018-12-27T05:44:15.027Z,9.80
2018-12-27T05:46:45.029Z,10.07
2018-12-27T05:49:15.065Z,10.20
2018-12-27T05:51:45.076Z,10.33
2018-12-27T05:54:15.198Z,10.80
2018-12-27T05:56:45.113Z,10.40
2018-12-27T05:59:15.069Z,9.50
2018-12-27T06:01:44.968Z,10.33
2018-12-27T06:04:14.875Z,9.70
2018-12-27T06:06:44.812Z,9.13
2018-12-27T06:09:14.810Z,9.60
2018-12-27T06:11:44.776Z,9.70
2018-12-27T06:14:14.752Z,8.87
2018-12-27T06:16:44.809Z,9.20
2018-12-27T06:19:14.762Z,9.13
2018-12-27T06:21:44.721Z,8.53
2018-12-27T06:24:14.877Z,9.03
2018-12-27T06:26:44.862Z,8.67
2018-12-27T06:29:14.850Z,8.60
2018-12-27T06:31:44.798Z,8.33
2018-12-27T06:34:15.061Z,8.30
2018-12-27T06:36:45.167Z,8.43
2018-12-27T06:39:15.119Z,8.20
2018-12-27T06:41:45.073Z,8.07
2018-12-27T06:44:14.951Z,8.90
2018-12-27T06:46:44.889Z,8.20
2018-12-27T06:49:14.885Z,8.20
2018-12-27T06:51:44.833Z,8.30
2018-12-27T06:54:14.796Z,7.73
2018-12-27T06:56:44.750Z,8.50
2018-12-27T06:59:14.850Z,8.20
2018-12-27T07:01:44.835Z,8.87
2018-12-27T07:04:14.817Z,7.40
2018-12-27T07:06:44.735Z,8.97
2018-12-27T07:09:14.782Z,8.67
2018-12-27T07:11:44.740Z,8.40
2018-12-27T07:14:14.853Z,8.30
2018-12-27T07:16:44.866Z,8.27
2018-12-27T07:19:14.843Z,8.93
2018-12-27T07:21:44.797Z,9.53
2018-12-27T07:24:14.945Z,9.10
2018-12-27T07:26:44.971Z,7.63
2018-12-27T07:29:14.919Z,8.47
2018-12-27T07:31:44.830Z,8.23
2018-12-27T07:34:14.773Z,8.37
2018-12-27T07:36:44.753Z,7.93
2018-12-27T07:39:14.810Z,8.33
2018-12-27T07:41:44.756Z,9.00
2018-12-27T07:44:14.785Z,9.60
2018-12-27T07:46:44.786Z,8.90
2018-12-27T07:49:14.761Z,8.13
2018-12-27T07:51:44.713Z,8.53
2018-12-27T07:54:14.645Z,8.77
2018-12-27T07:56:44.580Z,8.70
2018-12-27T07:59:14.628Z,9.10
2018-12-27T08:01:44.548Z,8.60
2018-12-27T08:04:14.494Z,9.57
2018-12-27T08:06:44.537Z,9.00
2018-12-27T08:09:14.575Z,9.47
2018-12-27T08:11:44.599Z,8.77
2018-12-27T08:14:14.745Z,8.40
2018-12-27T08:16:44.725Z,8.70
2018-12-27T08:19:14.682Z,8.70
2018-12-27T08:21:44.669Z,8.83
2018-12-27T08:24:14.701Z,8.83
2018-12-27T08:26:44.637Z,8.30
2018-12-27T08:29:14.675Z,8.70
2018-12-27T08:31:44.664Z,8.10
2018-12-27T08:34:14.644Z,7.73
2018-12-27T08:36:44.988Z,7.80
2018-12-27T08:39:15.202Z,7.70
2018-12-27T08:41:45.362Z,7.43
2018-12-27T08:44:15.293Z,7.30
2018-12-27T08:46:45.178Z,6.03
2018-12-27T08:49:15.092Z,7.17
2018-12-27T08:51:45.046Z,6.70
2018-12-27T08:54:15.008Z,6.20
2018-12-27T08:56:45.076Z,7.60
2018-12-27T08:59:14.997Z,6.70
2018-12-27T09:01:45.054Z,6.50
2018-12-27T09:04:15.013Z,6.60
2018-12-27T09:06:44.982Z,6.87
2018-12-27T09:09:14.876Z,7.73
2018-12-27T09:11:44.921Z,6.80
2018-12-27T09:14:14.913Z,6.63
2018-12-27T09:16:44.926Z,8.33
2018-12-27T09:19:15.252Z,6.50
2018-12-27T09:21:45.857Z,6.60
2018-12-27T09:24:15.793Z,6.30
2018-12-27T09:26:45.819Z,8.43
2018-12-27T09:29:15.811Z,7.20
2018-12-27T09:31:45.785Z,6.63
2018-12-27T09:34:15.713Z,7.27
2018-12-27T09:36:46.149Z,6.83
2018-12-27T09:39:16.098Z,6.17
2018-12-27T09:42:05.044Z,6.77
2018-12-27T09:44:35.225Z,6.87
2018-12-27T09:47:05.249Z,6.40
2018-12-27T09:49:35.217Z,6.10
2018-12-27T09:52:05.274Z,6.70
2018-12-27T09:54:35.293Z,7.30
2018-12-27T09:57:05.250Z,7.43
2018-12-27T09:59:35.238Z,6.70
2018-12-27T10:02:05.199Z,7.63
2018-12-27T10:04:35.153Z,12.50
2018-12-27T10:07:05.085Z,7.27
2018-12-27T10:09:35.052Z,6.67
2018-12-27T10:12:04.954Z,6.70
2018-12-27T10:14:35.040Z,7.07
2018-12-27T10:17:04.933Z,6.20
2018-12-27T10:19:34.978Z,6.20
2018-12-27T10:22:04.928Z,5.20
2018-12-27T10:24:34.913Z,5.93
2018-12-27T10:27:04.960Z,15.97
2018-12-27T10:29:35.009Z,6.77
2018-12-27T10:32:05.041Z,5.80
2018-12-27T10:34:35.218Z,6.90
2018-12-27T10:37:05.263Z,6.70
2018-12-27T10:39:35.225Z,6.60
2018-12-27T10:42:05.182Z,5.73
2018-12-27T10:44:35.457Z,5.83
2018-12-27T10:47:05.393Z,6.00
2018-12-27T10:49:35.389Z,5.47
2018-12-27T10:52:05.379Z,5.97
2018-12-27T10:54:35.378Z,6.53
2018-12-27T10:57:05.561Z,6.17
2018-12-27T10:59:35.536Z,5.70
2018-12-27T11:02:06.064Z,5.90
2018-12-27T11:04:36.102Z,6.07
2018-12-27T11:07:06.077Z,7.07
2018-12-27T11:09:36.010Z,11.13
2018-12-27T11:12:06.094Z,13.27
2018-12-27T11:14:36.043Z,8.07
2018-12-27T11:17:06.174Z,7.67
2018-12-27T11:19:36.117Z,10.63
2018-12-27T11:22:06.144Z,11.07
2018-12-27T11:24:36.141Z,10.73
2018-12-27T11:27:06.098Z,8.10
2018-12-27T11:29:36.120Z,8.17
2018-12-27T11:32:06.240Z,12.70
2018-12-27T11:34:36.850Z,10.30
2018-12-27T11:37:06.887Z,7.90
2018-12-27T11:39:36.858Z,9.20
2018-12-27T11:42:07.660Z,7.77
2018-12-27T11:44:37.629Z,10.30
2018-12-27T11:47:08.194Z,7.60
2018-12-27T11:49:38.197Z,6.47
2018-12-27T11:52:08.249Z,6.73
2018-12-27T11:54:38.270Z,6.70
2018-12-27T11:57:08.246Z,6.80
2018-12-27T11:59:38.190Z,6.87
2018-12-27T12:02:08.268Z,6.40
2018-12-27T12:04:38.241Z,6.90
2018-12-27T12:07:08.180Z,6.70
2018-12-27T12:09:38.161Z,7.20
2018-12-27T12:12:08.361Z,8.17
2018-12-27T12:14:38.550Z,7.53
2018-12-27T12:17:08.578Z,6.73
2018-12-27T12:19:38.774Z,7.37
2018-12-27T12:22:08.828Z,7.97
2018-12-27T12:24:38.834Z,10.00
2018-12-27T12:27:09.017Z,9.53
2018-12-27T12:29:38.985Z,9.67
2018-12-27T12:32:08.957Z,10.20
2018-12-27T12:34:39.089Z,10.87
2018-12-27T12:37:13.919Z,10.87
2018-12-27T12:39:41.883Z,10.30
2018-12-27T12:42:11.864Z,10.07
2018-12-27T12:44:41.886Z,9.23
2018-12-27T12:47:11.897Z,9.50
2018-12-27T12:49:41.929Z,9.03
2018-12-27T12:52:12.170Z,9.73
2018-12-27T12:54:43.265Z,10.50
2018-12-27T12:57:13.609Z,11.87
2018-12-27T12:59:43.576Z,12.40
2018-12-27T13:02:13.647Z,18.77
2018-12-27T13:04:43.787Z,20.50
2018-12-27T13:07:13.757Z,18.70
2018-12-27T13:09:43.753Z,18.57
2018-12-27T13:12:13.682Z,15.73
2018-12-27T13:14:43.589Z,13.77
2018-12-27T13:17:13.529Z,11.47
2018-12-27T13:19:43.606Z,9.67
2018-12-27T13:22:13.585Z,9.30
2018-12-27T13:24:44.255Z,14.50
2018-12-27T13:27:14.413Z,12.50
2018-12-27T13:29:44.477Z,11.90
2018-12-27T13:32:14.557Z,10.67
2018-12-27T13:34:44.514Z,9.27
2018-12-27T13:37:14.481Z,9.87
2018-12-27T13:39:44.470Z,22.87
2018-12-27T13:42:15.111Z,17.57
2018-12-27T13:44:46.085Z,9.80
2018-12-27T13:47:16.200Z,8.73
2018-12-27T13:49:46.178Z,8.70
2018-12-27T13:52:16.397Z,8.53
2018-12-27T13:54:46.344Z,8.80
2018-12-27T13:57:16.837Z,19.97
2018-12-27T13:59:46.811Z,10.70
2018-12-27T14:02:16.814Z,10.93
2018-12-27T14:04:46.830Z,25.10
2018-12-27T14:07:16.776Z,10.17
2018-12-27T14:09:48.865Z,19.60
2018-12-27T14:12:18.883Z,12.20
2018-12-27T14:14:48.990Z,10.00
2018-12-27T14:17:19.518Z,8.37
2018-12-27T14:19:49.418Z,13.93
2018-12-27T14:22:19.342Z,42.87
2018-12-27T14:24:49.433Z,26.13
2018-12-27T14:27:19.781Z,16.70
2018-12-27T14:29:50.217Z,8.20
2018-12-27T14:32:20.227Z,9.30
2018-12-27T14:34:50.448Z,11.53
2018-12-27T14:37:20.414Z,9.07
2018-12-27T14:39:50.791Z,8.23
2018-12-27T14:42:21.676Z,10.20
2018-12-27T14:44:51.773Z,6.73
2018-12-27T14:47:22.345Z,7.67
2018-12-27T14:49:52.528Z,7.50
2018-12-27T14:52:22.593Z,6.90
2018-12-27T14:54:52.827Z,8.10
2018-12-27T14:57:22.869Z,7.83
2018-12-27T14:59:52.813Z,8.77
2018-12-27T15:02:23.326Z,7.80
2018-12-27T15:04:54.893Z,8.53
2018-12-27T15:07:25.327Z,8.73
2018-12-27T15:09:55.279Z,8.37
2018-12-27T15:12:25.184Z,8.47
2018-12-27T15:14:55.462Z,8.40
2018-12-27T15:17:26.121Z,6.90
2018-12-27T15:19:56.285Z,7.73
2018-12-27T15:22:26.377Z,7.90
2018-12-27T15:24:58.395Z,9.40
2018-12-27T15:27:28.271Z,8.50
2018-12-27T15:29:59.130Z,8.73
2018-12-27T15:32:29.044Z,8.00
2018-12-27T15:34:59.146Z,8.67
2018-12-27T15:37:29.183Z,7.90
2018-12-27T15:39:59.265Z,8.27
2018-12-27T15:42:29.275Z,8.73
2018-12-27T15:44:59.265Z,7.83
2018-12-27T15:47:29.297Z,9.00
2018-12-27T15:49:59.339Z,8.80
2018-12-27T15:52:29.293Z,7.57
2018-12-27T15:54:59.415Z,8.80
2018-12-27T15:57:29.641Z,8.50
2018-12-27T15:59:59.631Z,7.60
2018-12-27T16:02:29.601Z,10.20
2018-12-27T16:04:59.653Z,11.00
2018-12-27T16:07:29.716Z,9.37
2018-12-27T16:09:59.626Z,10.30
2018-12-27T16:12:29.786Z,15.77
2018-12-27T16:14:59.759Z,8.80
2018-12-27T16:17:29.761Z,11.20
2018-12-27T16:19:59.732Z,21.10
2018-12-27T16:22:29.882Z,14.23
2018-12-27T16:24:59.998Z,10.07
2018-12-27T16:27:30.009Z,9.30
2018-12-27T16:30:00.687Z,9.70
2018-12-27T16:32:30.893Z,11.20
2018-12-27T16:35:01.598Z,13.43
2018-12-27T16:37:31.613Z,15.63
2018-12-27T16:40:01.773Z,11.23
2018-12-27T16:42:31.878Z,10.93
2018-12-27T16:45:01.906Z,10.93
2018-12-27T16:47:31.887Z,10.00
2018-12-27T16:50:03.295Z,9.83
2018-12-27T16:52:33.304Z,10.80
2018-12-27T16:55:05.477Z,10.10
2018-12-27T16:57:35.501Z,9.53
2018-12-27T17:00:05.815Z,10.80
2018-12-27T17:02:36.173Z,10.93
2018-12-27T17:05:06.138Z,11.00
2018-12-27T17:07:36.274Z,10.47
2018-12-27T17:10:07.125Z,9.97
2018-12-27T17:12:37.174Z,14.37
2018-12-27T17:15:07.323Z,13.13
2018-12-27T17:17:37.309Z,10.80
2018-12-27T17:20:07.617Z,10.13
2018-12-27T17:22:37.626Z,8.40
2018-12-27T17:25:08.362Z,9.00
2018-12-27T17:27:38.812Z,10.30
2018-12-27T17:30:09.285Z,9.10
2018-12-27T17:32:39.498Z,9.83
2018-12-27T17:35:09.857Z,11.47
2018-12-27T17:37:39.797Z,8.60
2018-12-27T17:40:09.771Z,8.70
2018-12-27T17:42:39.729Z,9.20
2018-12-27T17:45:09.673Z,9.47
2018-12-27T17:47:39.687Z,8.87
2018-12-27T17:50:10.381Z,10.80
2018-12-27T17:52:40.392Z,11.93
2018-12-27T17:55:10.465Z,10.00
2018-12-27T17:57:40.455Z,10.30
2018-12-27T18:00:10.570Z,10.37
2018-12-27T18:02:40.548Z,9.43
2018-12-27T18:05:10.589Z,10.70
2018-12-27T18:07:40.890Z,9.50
2018-12-27T18:10:10.905Z,10.17
2018-12-27T18:12:41.002Z,9.87
2018-12-27T18:15:11.001Z,9.70
2018-12-27T18:17:41.022Z,9.53
2018-12-27T18:20:11.089Z,10.30
2018-12-27T18:22:43.693Z,9.67
2018-12-27T18:25:14.138Z,10.63
2018-12-27T18:27:44.125Z,10.23
2018-12-27T18:30:14.376Z,11.40
2018-12-27T18:32:46.690Z,10.17
2018-12-27T18:35:16.964Z,10.10
2018-12-27T18:37:46.964Z,9.60
2018-12-27T18:40:17.165Z,9.43
2018-12-27T18:42:48.512Z,10.60
2018-12-27T18:45:18.905Z,10.30
2018-12-27T18:47:48.896Z,9.83
2018-12-27T18:50:18.914Z,9.33
2018-12-27T18:52:48.913Z,11.20
2018-12-27T18:55:20.279Z,10.77
2018-12-27T18:57:50.761Z,10.67
2018-12-27T19:00:20.718Z,10.33
2018-12-27T19:02:50.854Z,10.30
2018-12-27T19:05:21.486Z,9.37
2018-12-27T19:07:51.539Z,10.30
2018-12-27T19:10:21.482Z,10.70
2018-12-27T19:13:10.909Z,10.90
2018-12-27T19:15:56.596Z,9.70
2018-12-27T19:18:39.329Z,10.30
2018-12-27T19:21:33.845Z,9.93
2018-12-27T19:24:04.308Z,11.70
2018-12-27T19:26:34.293Z,11.33
2018-12-27T19:29:04.584Z,13.73
2018-12-27T19:31:34.566Z,12.17
2018-12-27T19:34:04.841Z,11.90
2018-12-27T19:36:35.488Z,10.63
2018-12-27T19:39:07.270Z,13.70
2018-12-27T19:41:37.255Z,11.17
2018-12-27T19:44:08.962Z,9.23
2018-12-27T19:46:38.964Z,17.13
2018-12-27T19:49:13.295Z,12.50
2018-12-27T19:51:43.415Z,9.83
2018-12-27T19:54:13.487Z,9.00
2018-12-27T19:56:43.654Z,10.47
2018-12-27T19:59:13.761Z,9.87
2018-12-27T20:01:43.837Z,10.77
2018-12-27T20:04:14.913Z,9.60
2018-12-27T20:06:45.076Z,8.10
2018-12-27T20:09:15.089Z,9.10
2018-12-27T20:11:45.113Z,9.87
2018-12-27T20:14:15.420Z,9.63
2018-12-27T20:16:46.117Z,9.67
2018-12-27T20:19:16.138Z,10.23
2018-12-27T20:21:46.576Z,9.60
2018-12-27T20:24:16.573Z,9.17
2018-12-27T20:26:48.183Z,9.07
2018-12-27T20:29:18.170Z,10.10
2018-12-27T20:31:48.886Z,10.03
2018-12-27T20:34:19.031Z,8.93
2018-12-27T20:36:49.110Z,8.57
2018-12-27T20:39:19.394Z,10.00
2018-12-27T20:41:49.381Z,9.13
2018-12-27T20:44:24.549Z,9.00
2018-12-27T20:46:57.786Z,10.23
2018-12-27T20:49:27.822Z,8.90
2018-12-27T20:51:58.040Z,8.80
2018-12-27T20:54:31.276Z,8.70
2018-12-27T20:57:01.249Z,8.30
2018-12-27T20:59:31.229Z,9.70
2018-12-27T21:02:01.690Z,8.50
2018-12-27T21:04:37.793Z,9.23
2018-12-27T21:07:10.728Z,10.60
2018-12-27T21:09:40.915Z,10.83
2018-12-27T21:12:11.010Z,10.40
2018-12-27T21:14:41.241Z,8.03
2018-12-27T21:17:11.261Z,9.57
2018-12-27T21:19:41.776Z,9.60
2018-12-27T21:22:12.010Z,9.00
2018-12-27T21:24:46.903Z,10.27
2018-12-27T21:27:17.012Z,9.50
2018-12-27T21:29:47.401Z,9.30
2018-12-27T21:32:17.864Z,6.90
2018-12-27T21:34:47.909Z,7.63
2018-12-27T21:37:17.918Z,10.70
2018-12-27T21:39:50.874Z,10.13
2018-12-27T21:42:22.293Z,12.03
2018-12-27T21:44:52.684Z,11.63
2018-12-27T21:47:22.848Z,9.10
2018-12-27T21:49:55.259Z,10.67
2018-12-27T21:52:25.568Z,11.43
2018-12-27T21:54:57.009Z,12.50
2018-12-27T21:57:26.933Z,12.20
2018-12-27T21:59:57.229Z,11.23
2018-12-27T22:02:27.180Z,11.30
2018-12-27T22:04:57.200Z,11.53
2018-12-27T22:07:28.973Z,12.23
2018-12-27T22:10:00.710Z,10.80
2018-12-27T22:12:30.934Z,10.50
2018-12-27T22:15:01.053Z,10.70
2018-12-27T22:17:31.129Z,10.30
2018-12-27T22:20:01.133Z,11.13
2018-12-27T22:22:31.369Z,10.90
2018-12-27T22:25:01.497Z,10.00
2018-12-27T22:27:31.576Z,13.13
2018-12-27T22:30:05.005Z,12.50
2018-12-27T22:32:35.302Z,13.03
2018-12-27T22:35:05.928Z,13.40
2018-12-27T22:37:37.137Z,12.73
2018-12-27T22:40:07.307Z,12.90
2018-12-27T22:42:43.145Z,13.80
2018-12-27T22:45:16.263Z,12.73
2018-12-27T22:47:46.337Z,13.77
2018-12-27T22:50:16.721Z,13.13
2018-12-27T22:52:46.686Z,11.37
2018-12-27T22:55:16.706Z,12.20
2018-12-27T22:57:46.718Z,12.50
2018-12-27T23:00:27.674Z,14.00
2018-12-27T23:02:57.718Z,13.00
2018-12-27T23:05:28.076Z,13.13
2018-12-27T23:07:58.751Z,12.90
2018-12-27T23:10:28.864Z,11.40
2018-12-27T23:12:59.309Z,11.20
2018-12-27T23:15:29.243Z,12.07
2018-12-27T23:17:59.201Z,10.97
2018-12-27T23:20:29.125Z,10.47
2018-12-27T23:22:59.100Z,11.03
2018-12-27T23:25:29.223Z,9.53
2018-12-27T23:27:59.437Z,9.50
2018-12-27T23:30:29.915Z,9.97
2018-12-27T23:32:59.982Z,10.87
2018-12-27T23:35:31.146Z,10.93
2018-12-27T23:38:01.133Z,10.50
2018-12-27T23:40:31.208Z,10.90
2018-12-27T23:43:01.307Z,10.60
2018-12-27T23:45:31.221Z,10.70
2018-12-27T23:48:01.298Z,10.87
2018-12-27T23:50:31.561Z,10.70
2018-12-27T23:53:02.004Z,10.43
2018-12-27T23:55:32.448Z,10.60
2018-12-27T23:58:02.635Z,10.77
